sensor_id;sensor_type;location;lat;lon;timestamp;P1;durP1;ratioP1;P2;durP2;ratioP2
22679;SDS011;11507;44.858;10.374;2024-02-28T00:00:36;16.92;;;11.55;;
22679;SDS011;11507;44.858;10.374;2024-02-28T00:03:03;20.98;;;12.45;;
22679;SDS011;11507;44.858;10.374;2024-02-28T00:05:30;24.25;;;14.23;;
22679;SDS011;11507;44.858;10.374;2024-02-28T00:07:57;19.95;;;11.50;;
22679;SDS011;11507;44.858;10.374;2024-02-28T00:10:23;19.25;;;12.05;;
22679;SDS011;11507;44.858;10.374;2024-02-28T00:12:50;22.83;;;12.98;;
22679;SDS011;11507;44.858;10.374;2024-02-28T00:15:16;18.98;;;12.50;;
22679;SDS011;11507;44.858;10.374;2024-02-28T00:17:43;21.08;;;12.85;;
22679;SDS011;11507;44.858;10.374;2024-02-28T00:20:11;21.05;;;12.77;;
22679;SDS011;11507;44.858;10.374;2024-02-28T00:22:38;22.15;;;13.48;;
22679;SDS011;11507;44.858;10.374;2024-02-28T00:25:05;21.83;;;14.18;;
22679;SDS011;11507;44.858;10.374;2024-02-28T00:27:32;22.40;;;14.05;;
22679;SDS011;11507;44.858;10.374;2024-02-28T00:30:00;23.23;;;13.93;;
22679;SDS011;11507;44.858;10.374;2024-02-28T00:32:26;22.63;;;14.48;;
22679;SDS011;11507;44.858;10.374;2024-02-28T00:34:53;26.88;;;15.07;;
22679;SDS011;11507;44.858;10.374;2024-02-28T00:37:19;23.80;;;14.68;;
22679;SDS011;11507;44.858;10.374;2024-02-28T00:39:47;28.30;;;15.27;;
22679;SDS011;11507;44.858;10.374;2024-02-28T00:42:13;26.42;;;15.43;;
22679;SDS011;11507;44.858;10.374;2024-02-28T00:44:40;26.75;;;15.70;;
22679;SDS011;11507;44.858;10.374;2024-02-28T00:47:08;28.35;;;15.82;;
22679;SDS011;11507;44.858;10.374;2024-02-28T00:49:35;24.67;;;15.57;;
22679;SDS011;11507;44.858;10.374;2024-02-28T00:52:01;30.80;;;17.13;;
22679;SDS011;11507;44.858;10.374;2024-02-28T00:54:28;25.92;;;16.55;;
22679;SDS011;11507;44.858;10.374;2024-02-28T00:56:55;24.60;;;16.13;;
22679;SDS011;11507;44.858;10.374;2024-02-28T00:59:21;25.88;;;16.00;;
22679;SDS011;11507;44.858;10.374;2024-02-28T01:01:48;28.70;;;15.95;;
22679;SDS011;11507;44.858;10.374;2024-02-28T01:04:15;29.45;;;17.00;;
22679;SDS011;11507;44.858;10.374;2024-02-28T01:06:41;30.13;;;15.35;;
22679;SDS011;11507;44.858;10.374;2024-02-28T01:09:08;30.08;;;15.15;;
22679;SDS011;11507;44.858;10.374;2024-02-28T01:11:34;24.75;;;13.77;;
22679;SDS011;11507;44.858;10.374;2024-02-28T01:14:01;22.42;;;13.13;;
22679;SDS011;11507;44.858;10.374;2024-02-28T01:16:27;25.02;;;13.63;;
22679;SDS011;11507;44.858;10.374;2024-02-28T01:18:54;25.70;;;13.38;;
22679;SDS011;11507;44.858;10.374;2024-02-28T01:21:21;22.33;;;13.05;;
22679;SDS011;11507;44.858;10.374;2024-02-28T01:23:48;24.52;;;13.55;;
22679;SDS011;11507;44.858;10.374;2024-02-28T01:26:14;21.23;;;12.35;;
22679;SDS011;11507;44.858;10.374;2024-02-28T01:28:41;27.33;;;12.48;;
22679;SDS011;11507;44.858;10.374;2024-02-28T01:31:08;18.48;;;11.52;;
22679;SDS011;11507;44.858;10.374;2024-02-28T01:33:35;19.95;;;11.57;;
22679;SDS011;11507;44.858;10.374;2024-02-28T01:36:01;26.02;;;12.20;;
22679;SDS011;11507;44.858;10.374;2024-02-28T01:38:28;19.83;;;11.07;;
22679;SDS011;11507;44.858;10.374;2024-02-28T01:40:54;25.50;;;11.25;;
22679;SDS011;11507;44.858;10.374;2024-02-28T01:43:21;22.95;;;11.43;;
22679;SDS011;11507;44.858;10.374;2024-02-28T01:45:47;25.30;;;11.07;;
22679;SDS011;11507;44.858;10.374;2024-02-28T01:48:14;19.02;;;11.02;;
22679;SDS011;11507;44.858;10.374;2024-02-28T01:50:41;21.45;;;11.73;;
22679;SDS011;11507;44.858;10.374;2024-02-28T01:53:08;26.90;;;11.45;;
22679;SDS011;11507;44.858;10.374;2024-02-28T01:55:39;24.58;;;12.10;;
22679;SDS011;11507;44.858;10.374;2024-02-28T01:58:06;24.30;;;11.40;;
22679;SDS011;11507;44.858;10.374;2024-02-28T02:00:33;28.40;;;12.23;;
22679;SDS011;11507;44.858;10.374;2024-02-28T02:03:03;24.15;;;11.18;;
22679;SDS011;11507;44.858;10.374;2024-02-28T02:05:29;23.17;;;12.18;;
22679;SDS011;11507;44.858;10.374;2024-02-28T02:07:57;21.77;;;10.88;;
22679;SDS011;11507;44.858;10.374;2024-02-28T02:10:25;24.52;;;12.73;;
22679;SDS011;11507;44.858;10.374;2024-02-28T02:12:52;22.92;;;12.05;;
22679;SDS011;11507;44.858;10.374;2024-02-28T02:15:18;26.20;;;12.05;;
22679;SDS011;11507;44.858;10.374;2024-02-28T02:17:45;24.75;;;11.77;;
22679;SDS011;11507;44.858;10.374;2024-02-28T02:20:11;26.52;;;12.10;;
22679;SDS011;11507;44.858;10.374;2024-02-28T02:22:40;26.13;;;12.05;;
22679;SDS011;11507;44.858;10.374;2024-02-28T02:25:07;23.83;;;12.40;;
22679;SDS011;11507;44.858;10.374;2024-02-28T02:27:34;27.98;;;11.60;;
22679;SDS011;11507;44.858;10.374;2024-02-28T02:30:00;22.90;;;12.63;;
22679;SDS011;11507;44.858;10.374;2024-02-28T02:32:27;22.00;;;12.07;;
22679;SDS011;11507;44.858;10.374;2024-02-28T02:34:54;28.58;;;13.27;;
22679;SDS011;11507;44.858;10.374;2024-02-28T02:37:20;22.85;;;12.43;;
22679;SDS011;11507;44.858;10.374;2024-02-28T02:39:47;26.58;;;12.73;;
22679;SDS011;11507;44.858;10.374;2024-02-28T02:42:13;28.30;;;13.38;;
22679;SDS011;11507;44.858;10.374;2024-02-28T02:44:40;22.70;;;12.88;;
22679;SDS011;11507;44.858;10.374;2024-02-28T02:47:08;28.08;;;13.57;;
22679;SDS011;11507;44.858;10.374;2024-02-28T02:49:34;25.83;;;13.35;;
22679;SDS011;11507;44.858;10.374;2024-02-28T02:52:01;27.20;;;12.93;;
22679;SDS011;11507;44.858;10.374;2024-02-28T02:54:27;25.73;;;13.75;;
22679;SDS011;11507;44.858;10.374;2024-02-28T02:56:54;25.00;;;12.00;;
22679;SDS011;11507;44.858;10.374;2024-02-28T02:59:20;23.02;;;11.60;;
22679;SDS011;11507;44.858;10.374;2024-02-28T03:01:49;25.05;;;11.73;;
22679;SDS011;11507;44.858;10.374;2024-02-28T03:04:16;25.88;;;10.95;;
22679;SDS011;11507;44.858;10.374;2024-02-28T03:06:43;22.80;;;10.35;;
22679;SDS011;11507;44.858;10.374;2024-02-28T03:09:09;20.95;;;10.25;;
22679;SDS011;11507;44.858;10.374;2024-02-28T03:11:36;26.05;;;10.43;;
22679;SDS011;11507;44.858;10.374;2024-02-28T03:14:02;31.95;;;10.73;;
22679;SDS011;11507;44.858;10.374;2024-02-28T03:16:29;31.75;;;10.70;;
22679;SDS011;11507;44.858;10.374;2024-02-28T03:18:55;21.83;;;10.15;;
22679;SDS011;11507;44.858;10.374;2024-02-28T03:21:22;22.25;;;10.02;;
22679;SDS011;11507;44.858;10.374;2024-02-28T03:23:49;26.80;;;10.90;;
22679;SDS011;11507;44.858;10.374;2024-02-28T03:26:16;26.67;;;10.70;;
22679;SDS011;11507;44.858;10.374;2024-02-28T03:28:42;24.08;;;10.38;;
22679;SDS011;11507;44.858;10.374;2024-02-28T03:31:09;26.77;;;10.40;;
22679;SDS011;11507;44.858;10.374;2024-02-28T03:33:35;22.80;;;10.60;;
22679;SDS011;11507;44.858;10.374;2024-02-28T03:36:02;20.40;;;10.10;;
22679;SDS011;11507;44.858;10.374;2024-02-28T03:38:29;23.80;;;10.25;;
22679;SDS011;11507;44.858;10.374;2024-02-28T03:40:56;27.38;;;10.70;;
22679;SDS011;11507;44.858;10.374;2024-02-28T03:43:22;22.40;;;10.35;;
22679;SDS011;11507;44.858;10.374;2024-02-28T03:45:49;20.40;;;10.85;;
22679;SDS011;11507;44.858;10.374;2024-02-28T03:48:15;20.77;;;10.70;;
22679;SDS011;11507;44.858;10.374;2024-02-28T03:50:42;21.65;;;10.70;;
22679;SDS011;11507;44.858;10.374;2024-02-28T03:53:09;20.98;;;10.75;;
22679;SDS011;11507;44.858;10.374;2024-02-28T03:55:36;21.85;;;10.85;;
22679;SDS011;11507;44.858;10.374;2024-02-28T03:58:03;18.80;;;11.15;;
22679;SDS011;11507;44.858;10.374;2024-02-28T04:00:32;23.35;;;11.32;;
22679;SDS011;11507;44.858;10.374;2024-02-28T04:02:59;23.52;;;11.00;;
22679;SDS011;11507;44.858;10.374;2024-02-28T04:05:25;23.85;;;10.80;;
22679;SDS011;11507;44.858;10.374;2024-02-28T04:07:52;19.98;;;10.98;;
22679;SDS011;11507;44.858;10.374;2024-02-28T04:10:18;22.65;;;10.82;;
22679;SDS011;11507;44.858;10.374;2024-02-28T04:12:45;24.05;;;10.77;;
22679;SDS011;11507;44.858;10.374;2024-02-28T04:15:12;25.48;;;10.90;;
22679;SDS011;11507;44.858;10.374;2024-02-28T04:17:39;27.60;;;12.48;;
22679;SDS011;11507;44.858;10.374;2024-02-28T04:20:10;21.35;;;11.13;;
22679;SDS011;11507;44.858;10.374;2024-02-28T04:22:37;21.70;;;10.85;;
22679;SDS011;11507;44.858;10.374;2024-02-28T04:25:08;19.25;;;11.00;;
22679;SDS011;11507;44.858;10.374;2024-02-28T04:27:35;21.75;;;11.18;;
22679;SDS011;11507;44.858;10.374;2024-02-28T04:30:02;24.98;;;11.93;;
22679;SDS011;11507;44.858;10.374;2024-02-28T04:32:29;21.05;;;11.20;;
22679;SDS011;11507;44.858;10.374;2024-02-28T04:34:56;21.27;;;11.02;;
22679;SDS011;11507;44.858;10.374;2024-02-28T04:37:22;19.30;;;10.70;;
22679;SDS011;11507;44.858;10.374;2024-02-28T04:39:49;23.77;;;10.52;;
22679;SDS011;11507;44.858;10.374;2024-02-28T04:42:15;16.05;;;9.30;;
22679;SDS011;11507;44.858;10.374;2024-02-28T04:44:42;20.23;;;10.02;;
22679;SDS011;11507;44.858;10.374;2024-02-28T04:47:09;17.63;;;9.82;;
22679;SDS011;11507;44.858;10.374;2024-02-28T04:49:38;20.75;;;9.63;;
22679;SDS011;11507;44.858;10.374;2024-02-28T04:52:05;21.52;;;9.38;;
22679;SDS011;11507;44.858;10.374;2024-02-28T04:54:32;16.52;;;9.05;;
22679;SDS011;11507;44.858;10.374;2024-02-28T04:56:59;19.13;;;9.05;;
22679;SDS011;11507;44.858;10.374;2024-02-28T04:59:26;16.58;;;9.32;;
22679;SDS011;11507;44.858;10.374;2024-02-28T05:01:52;17.80;;;9.88;;
22679;SDS011;11507;44.858;10.374;2024-02-28T05:04:19;15.88;;;9.65;;
22679;SDS011;11507;44.858;10.374;2024-02-28T05:06:46;15.13;;;8.73;;
22679;SDS011;11507;44.858;10.374;2024-02-28T05:09:13;14.20;;;9.10;;
22679;SDS011;11507;44.858;10.374;2024-02-28T05:11:39;15.23;;;9.00;;
22679;SDS011;11507;44.858;10.374;2024-02-28T05:14:06;14.38;;;9.02;;
22679;SDS011;11507;44.858;10.374;2024-02-28T05:16:36;16.45;;;8.77;;
22679;SDS011;11507;44.858;10.374;2024-02-28T05:19:21;18.30;;;8.88;;
22679;SDS011;11507;44.858;10.374;2024-02-28T05:21:47;15.52;;;8.07;;
22679;SDS011;11507;44.858;10.374;2024-02-28T05:24:14;14.93;;;8.68;;
22679;SDS011;11507;44.858;10.374;2024-02-28T05:26:41;16.20;;;9.60;;
22679;SDS011;11507;44.858;10.374;2024-02-28T05:29:07;19.63;;;9.88;;
22679;SDS011;11507;44.858;10.374;2024-02-28T05:31:34;17.80;;;9.93;;
22679;SDS011;11507;44.858;10.374;2024-02-28T05:34:02;16.08;;;9.82;;
22679;SDS011;11507;44.858;10.374;2024-02-28T05:36:29;11.60;;;8.35;;
22679;SDS011;11507;44.858;10.374;2024-02-28T05:38:58;14.18;;;8.65;;
22679;SDS011;11507;44.858;10.374;2024-02-28T05:41:26;19.88;;;9.35;;
22679;SDS011;11507;44.858;10.374;2024-02-28T05:43:54;14.60;;;8.73;;
22679;SDS011;11507;44.858;10.374;2024-02-28T05:46:21;15.35;;;9.48;;
22679;SDS011;11507;44.858;10.374;2024-02-28T05:48:49;15.75;;;10.35;;
22679;SDS011;11507;44.858;10.374;2024-02-28T05:51:16;13.40;;;9.10;;
22679;SDS011;11507;44.858;10.374;2024-02-28T05:53:42;16.55;;;9.73;;
22679;SDS011;11507;44.858;10.374;2024-02-28T05:56:09;15.95;;;8.90;;
22679;SDS011;11507;44.858;10.374;2024-02-28T05:58:45;17.08;;;9.65;;
22679;SDS011;11507;44.858;10.374;2024-02-28T06:01:16;17.00;;;9.93;;
22679;SDS011;11507;44.858;10.374;2024-02-28T06:03:47;17.75;;;9.85;;
22679;SDS011;11507;44.858;10.374;2024-02-28T06:06:14;18.33;;;9.63;;
22679;SDS011;11507;44.858;10.374;2024-02-28T06:08:41;20.33;;;9.98;;
22679;SDS011;11507;44.858;10.374;2024-02-28T06:11:09;17.30;;;9.68;;
22679;SDS011;11507;44.858;10.374;2024-02-28T06:13:35;16.65;;;9.18;;
22679;SDS011;11507;44.858;10.374;2024-02-28T06:16:02;14.65;;;9.25;;
22679;SDS011;11507;44.858;10.374;2024-02-28T06:18:29;18.52;;;9.82;;
22679;SDS011;11507;44.858;10.374;2024-02-28T06:20:58;20.27;;;9.75;;
22679;SDS011;11507;44.858;10.374;2024-02-28T06:23:26;15.00;;;8.65;;
22679;SDS011;11507;44.858;10.374;2024-02-28T06:25:52;15.70;;;8.50;;
22679;SDS011;11507;44.858;10.374;2024-02-28T06:28:19;17.58;;;8.18;;
22679;SDS011;11507;44.858;10.374;2024-02-28T06:30:46;17.48;;;7.47;;
22679;SDS011;11507;44.858;10.374;2024-02-28T06:33:13;15.70;;;7.30;;
22679;SDS011;11507;44.858;10.374;2024-02-28T06:35:40;16.95;;;7.43;;
22679;SDS011;11507;44.858;10.374;2024-02-28T06:38:06;16.15;;;7.90;;
22679;SDS011;11507;44.858;10.374;2024-02-28T06:40:33;14.13;;;7.43;;
22679;SDS011;11507;44.858;10.374;2024-02-28T06:43:00;15.25;;;7.78;;
22679;SDS011;11507;44.858;10.374;2024-02-28T06:45:27;16.98;;;7.88;;
22679;SDS011;11507;44.858;10.374;2024-02-28T06:47:53;15.93;;;8.52;;
22679;SDS011;11507;44.858;10.374;2024-02-28T06:50:20;13.77;;;8.32;;
22679;SDS011;11507;44.858;10.374;2024-02-28T06:52:47;19.48;;;9.95;;
22679;SDS011;11507;44.858;10.374;2024-02-28T06:55:14;18.73;;;9.75;;
22679;SDS011;11507;44.858;10.374;2024-02-28T06:57:41;16.23;;;8.43;;
22679;SDS011;11507;44.858;10.374;2024-02-28T07:00:09;18.73;;;8.73;;
22679;SDS011;11507;44.858;10.374;2024-02-28T07:02:37;17.15;;;7.40;;
22679;SDS011;11507;44.858;10.374;2024-02-28T07:05:06;11.88;;;6.30;;
22679;SDS011;11507;44.858;10.374;2024-02-28T07:07:33;18.42;;;7.05;;
22679;SDS011;11507;44.858;10.374;2024-02-28T07:09:59;12.25;;;6.45;;
22679;SDS011;11507;44.858;10.374;2024-02-28T07:12:27;13.05;;;6.60;;
22679;SDS011;11507;44.858;10.374;2024-02-28T07:14:54;11.93;;;6.72;;
22679;SDS011;11507;44.858;10.374;2024-02-28T07:17:21;11.43;;;6.20;;
22679;SDS011;11507;44.858;10.374;2024-02-28T07:19:48;10.38;;;6.57;;
22679;SDS011;11507;44.858;10.374;2024-02-28T07:22:14;13.25;;;6.47;;
22679;SDS011;11507;44.858;10.374;2024-02-28T07:24:40;11.98;;;6.28;;
22679;SDS011;11507;44.858;10.374;2024-02-28T07:27:07;15.25;;;6.68;;
22679;SDS011;11507;44.858;10.374;2024-02-28T07:29:34;11.23;;;6.45;;
22679;SDS011;11507;44.858;10.374;2024-02-28T07:32:02;13.50;;;6.50;;
22679;SDS011;11507;44.858;10.374;2024-02-28T07:34:28;11.98;;;6.35;;
22679;SDS011;11507;44.858;10.374;2024-02-28T07:36:54;13.43;;;6.90;;
22679;SDS011;11507;44.858;10.374;2024-02-28T07:39:21;15.30;;;6.60;;
22679;SDS011;11507;44.858;10.374;2024-02-28T07:41:49;13.50;;;6.03;;
22679;SDS011;11507;44.858;10.374;2024-02-28T07:44:16;14.98;;;5.82;;
22679;SDS011;11507;44.858;10.374;2024-02-28T07:46:43;11.88;;;5.82;;
22679;SDS011;11507;44.858;10.374;2024-02-28T07:49:09;10.50;;;5.78;;
22679;SDS011;11507;44.858;10.374;2024-02-28T07:51:36;16.05;;;6.70;;
22679;SDS011;11507;44.858;10.374;2024-02-28T07:54:02;12.73;;;5.97;;
22679;SDS011;11507;44.858;10.374;2024-02-28T07:56:29;12.65;;;6.75;;
22679;SDS011;11507;44.858;10.374;2024-02-28T07:58:56;16.60;;;7.05;;
22679;SDS011;11507;44.858;10.374;2024-02-28T08:01:22;13.20;;;7.05;;
22679;SDS011;11507;44.858;10.374;2024-02-28T08:03:49;14.48;;;6.40;;
22679;SDS011;11507;44.858;10.374;2024-02-28T08:06:16;14.38;;;6.20;;
22679;SDS011;11507;44.858;10.374;2024-02-28T08:08:45;12.80;;;5.55;;
22679;SDS011;11507;44.858;10.374;2024-02-28T08:11:12;12.55;;;5.65;;
22679;SDS011;11507;44.858;10.374;2024-02-28T08:13:39;9.18;;;5.60;;
22679;SDS011;11507;44.858;10.374;2024-02-28T08:16:06;11.82;;;5.20;;
22679;SDS011;11507;44.858;10.374;2024-02-28T08:18:34;10.80;;;5.18;;
22679;SDS011;11507;44.858;10.374;2024-02-28T08:21:01;13.43;;;5.65;;
22679;SDS011;11507;44.858;10.374;2024-02-28T08:23:31;11.77;;;4.75;;
22679;SDS011;11507;44.858;10.374;2024-02-28T08:25:58;9.48;;;4.97;;
22679;SDS011;11507;44.858;10.374;2024-02-28T08:28:24;10.30;;;5.47;;
22679;SDS011;11507;44.858;10.374;2024-02-28T08:30:51;12.13;;;5.43;;
22679;SDS011;11507;44.858;10.374;2024-02-28T08:33:17;9.95;;;5.40;;
22679;SDS011;11507;44.858;10.374;2024-02-28T08:35:44;14.05;;;5.20;;
22679;SDS011;11507;44.858;10.374;2024-02-28T08:38:10;11.48;;;5.57;;
22679;SDS011;11507;44.858;10.374;2024-02-28T08:40:37;9.85;;;5.07;;
22679;SDS011;11507;44.858;10.374;2024-02-28T08:43:04;13.95;;;5.82;;
22679;SDS011;11507;44.858;10.374;2024-02-28T08:45:30;10.63;;;5.70;;
22679;SDS011;11507;44.858;10.374;2024-02-28T08:47:57;7.57;;;5.07;;
22679;SDS011;11507;44.858;10.374;2024-02-28T08:50:27;8.85;;;4.97;;
22679;SDS011;11507;44.858;10.374;2024-02-28T08:52:54;9.05;;;5.35;;
22679;SDS011;11507;44.858;10.374;2024-02-28T08:55:20;7.95;;;4.95;;
22679;SDS011;11507;44.858;10.374;2024-02-28T08:57:48;10.05;;;5.40;;
22679;SDS011;11507;44.858;10.374;2024-02-28T09:00:15;11.10;;;5.10;;
22679;SDS011;11507;44.858;10.374;2024-02-28T09:02:43;11.38;;;5.65;;
22679;SDS011;11507;44.858;10.374;2024-02-28T09:05:11;11.27;;;5.82;;
22679;SDS011;11507;44.858;10.374;2024-02-28T09:07:37;9.90;;;6.15;;
22679;SDS011;11507;44.858;10.374;2024-02-28T09:10:04;11.50;;;6.25;;
22679;SDS011;11507;44.858;10.374;2024-02-28T09:12:31;14.98;;;6.70;;
22679;SDS011;11507;44.858;10.374;2024-02-28T09:14:58;9.70;;;6.95;;
22679;SDS011;11507;44.858;10.374;2024-02-28T09:17:25;12.88;;;7.20;;
22679;SDS011;11507;44.858;10.374;2024-02-28T09:19:52;15.43;;;7.75;;
22679;SDS011;11507;44.858;10.374;2024-02-28T09:22:19;14.10;;;7.60;;
22679;SDS011;11507;44.858;10.374;2024-02-28T09:24:47;11.88;;;7.45;;
22679;SDS011;11507;44.858;10.374;2024-02-28T09:27:14;16.20;;;7.72;;
22679;SDS011;11507;44.858;10.374;2024-02-28T09:29:40;12.20;;;7.22;;
22679;SDS011;11507;44.858;10.374;2024-02-28T09:32:07;12.55;;;6.97;;
22679;SDS011;11507;44.858;10.374;2024-02-28T09:34:34;13.18;;;7.22;;
22679;SDS011;11507;44.858;10.374;2024-02-28T09:37:01;14.77;;;7.22;;
22679;SDS011;11507;44.858;10.374;2024-02-28T09:39:29;14.80;;;7.07;;
22679;SDS011;11507;44.858;10.374;2024-02-28T09:41:56;11.48;;;7.00;;
22679;SDS011;11507;44.858;10.374;2024-02-28T09:44:23;9.75;;;6.70;;
22679;SDS011;11507;44.858;10.374;2024-02-28T09:46:51;13.43;;;7.10;;
22679;SDS011;11507;44.858;10.374;2024-02-28T09:49:18;12.15;;;6.53;;
22679;SDS011;11507;44.858;10.374;2024-02-28T09:51:46;10.45;;;6.30;;
22679;SDS011;11507;44.858;10.374;2024-02-28T09:54:17;10.68;;;6.45;;
22679;SDS011;11507;44.858;10.374;2024-02-28T09:56:43;12.52;;;6.78;;
22679;SDS011;11507;44.858;10.374;2024-02-28T09:59:12;11.30;;;6.30;;
22679;SDS011;11507;44.858;10.374;2024-02-28T10:01:42;9.90;;;6.03;;
22679;SDS011;11507;44.858;10.374;2024-02-28T10:04:14;10.55;;;5.97;;
22679;SDS011;11507;44.858;10.374;2024-02-28T10:06:40;9.48;;;5.60;;
22679;SDS011;11507;44.858;10.374;2024-02-28T10:09:07;12.05;;;6.13;;
22679;SDS011;11507;44.858;10.374;2024-02-28T10:11:36;12.48;;;5.90;;
22679;SDS011;11507;44.858;10.374;2024-02-28T10:14:03;10.68;;;5.30;;
22679;SDS011;11507;44.858;10.374;2024-02-28T10:16:30;9.15;;;5.07;;
22679;SDS011;11507;44.858;10.374;2024-02-28T10:18:56;10.93;;;5.32;;
22679;SDS011;11507;44.858;10.374;2024-02-28T10:21:23;10.15;;;5.43;;
22679;SDS011;11507;44.858;10.374;2024-02-28T10:23:51;8.68;;;5.50;;
22679;SDS011;11507;44.858;10.374;2024-02-28T10:26:18;9.50;;;5.47;;
22679;SDS011;11507;44.858;10.374;2024-02-28T10:28:44;12.77;;;5.63;;
22679;SDS011;11507;44.858;10.374;2024-02-28T10:31:11;9.20;;;5.03;;
22679;SDS011;11507;44.858;10.374;2024-02-28T10:33:37;9.13;;;5.00;;
22679;SDS011;11507;44.858;10.374;2024-02-28T10:36:04;8.70;;;5.57;;
22679;SDS011;11507;44.858;10.374;2024-02-28T10:38:32;12.40;;;5.90;;
22679;SDS011;11507;44.858;10.374;2024-02-28T10:41:04;10.40;;;5.95;;
22679;SDS011;11507;44.858;10.374;2024-02-28T10:43:31;14.45;;;9.15;;
22679;SDS011;11507;44.858;10.374;2024-02-28T10:46:00;15.38;;;6.55;;
22679;SDS011;11507;44.858;10.374;2024-02-28T10:48:27;10.25;;;5.75;;
22679;SDS011;11507;44.858;10.374;2024-02-28T10:50:54;10.52;;;5.68;;
22679;SDS011;11507;44.858;10.374;2024-02-28T10:53:21;11.10;;;5.95;;
22679;SDS011;11507;44.858;10.374;2024-02-28T10:56:01;8.52;;;5.35;;
22679;SDS011;11507;44.858;10.374;2024-02-28T10:58:32;8.70;;;5.10;;
22679;SDS011;11507;44.858;10.374;2024-02-28T11:01:05;8.90;;;6.10;;
22679;SDS011;11507;44.858;10.374;2024-02-28T11:03:32;10.93;;;5.68;;
22679;SDS011;11507;44.858;10.374;2024-02-28T11:05:59;11.98;;;6.25;;
22679;SDS011;11507;44.858;10.374;2024-02-28T11:08:27;10.20;;;5.40;;
22679;SDS011;11507;44.858;10.374;2024-02-28T11:10:55;8.20;;;5.22;;
22679;SDS011;11507;44.858;10.374;2024-02-28T11:13:29;10.10;;;4.72;;
22679;SDS011;11507;44.858;10.374;2024-02-28T11:16:08;8.98;;;5.05;;
22679;SDS011;11507;44.858;10.374;2024-02-28T11:18:35;9.38;;;5.00;;
22679;SDS011;11507;44.858;10.374;2024-02-28T11:21:02;11.40;;;5.55;;
22679;SDS011;11507;44.858;10.374;2024-02-28T11:23:37;10.50;;;5.50;;
22679;SDS011;11507;44.858;10.374;2024-02-28T11:26:03;9.35;;;5.15;;
22679;SDS011;11507;44.858;10.374;2024-02-28T11:28:30;9.15;;;5.50;;
22679;SDS011;11507;44.858;10.374;2024-02-28T11:30:56;10.13;;;5.88;;
22679;SDS011;11507;44.858;10.374;2024-02-28T11:33:23;9.23;;;5.40;;
22679;SDS011;11507;44.858;10.374;2024-02-28T11:35:59;11.00;;;5.55;;
22679;SDS011;11507;44.858;10.374;2024-02-28T11:38:25;10.52;;;5.18;;
22679;SDS011;11507;44.858;10.374;2024-02-28T11:40:55;8.98;;;5.20;;
22679;SDS011;11507;44.858;10.374;2024-02-28T11:43:22;8.40;;;4.53;;
22679;SDS011;11507;44.858;10.374;2024-02-28T11:45:48;8.93;;;4.88;;
22679;SDS011;11507;44.858;10.374;2024-02-28T11:48:15;11.07;;;5.97;;
22679;SDS011;11507;44.858;10.374;2024-02-28T11:50:42;15.63;;;7.15;;
22679;SDS011;11507;44.858;10.374;2024-02-28T11:53:09;13.82;;;7.65;;
22679;SDS011;11507;44.858;10.374;2024-02-28T11:55:35;14.95;;;8.93;;
22679;SDS011;11507;44.858;10.374;2024-02-28T11:58:07;11.75;;;8.02;;
22679;SDS011;11507;44.858;10.374;2024-02-28T12:00:47;14.35;;;7.15;;
22679;SDS011;11507;44.858;10.374;2024-02-28T12:03:20;11.57;;;5.95;;
22679;SDS011;11507;44.858;10.374;2024-02-28T12:05:47;11.43;;;5.97;;
22679;SDS011;11507;44.858;10.374;2024-02-28T12:08:18;10.75;;;6.35;;
22679;SDS011;11507;44.858;10.374;2024-02-28T12:10:46;10.30;;;6.28;;
22679;SDS011;11507;44.858;10.374;2024-02-28T12:13:19;11.73;;;6.78;;
22679;SDS011;11507;44.858;10.374;2024-02-28T12:15:48;10.85;;;5.68;;
22679;SDS011;11507;44.858;10.374;2024-02-28T12:18:15;11.27;;;6.47;;
22679;SDS011;11507;44.858;10.374;2024-02-28T12:20:42;13.45;;;6.00;;
22679;SDS011;11507;44.858;10.374;2024-02-28T12:23:12;14.23;;;6.50;;
22679;SDS011;11507;44.858;10.374;2024-02-28T12:25:39;11.02;;;6.18;;
22679;SDS011;11507;44.858;10.374;2024-02-28T12:28:05;12.05;;;6.47;;
22679;SDS011;11507;44.858;10.374;2024-02-28T12:30:38;10.52;;;6.32;;
22679;SDS011;11507;44.858;10.374;2024-02-28T12:35:40;10.30;;;5.43;;
22679;SDS011;11507;44.858;10.374;2024-02-28T12:38:09;8.65;;;5.00;;
22679;SDS011;11507;44.858;10.374;2024-02-28T12:40:37;11.77;;;5.78;;
22679;SDS011;11507;44.858;10.374;2024-02-28T12:43:04;10.05;;;5.65;;
22679;SDS011;11507;44.858;10.374;2024-02-28T12:45:33;8.13;;;5.50;;
22679;SDS011;11507;44.858;10.374;2024-02-28T12:48:00;10.43;;;5.30;;
22679;SDS011;11507;44.858;10.374;2024-02-28T12:50:27;10.02;;;5.13;;
22679;SDS011;11507;44.858;10.374;2024-02-28T12:52:54;10.60;;;5.47;;
22679;SDS011;11507;44.858;10.374;2024-02-28T12:55:20;11.30;;;6.18;;
22679;SDS011;11507;44.858;10.374;2024-02-28T12:57:48;10.48;;;5.60;;
22679;SDS011;11507;44.858;10.374;2024-02-28T13:00:16;10.18;;;5.00;;
22679;SDS011;11507;44.858;10.374;2024-02-28T13:02:44;12.32;;;3.90;;
22679;SDS011;11507;44.858;10.374;2024-02-28T13:05:12;7.30;;;3.10;;
22679;SDS011;11507;44.858;10.374;2024-02-28T13:07:40;7.43;;;3.40;;
22679;SDS011;11507;44.858;10.374;2024-02-28T13:10:07;6.60;;;3.08;;
22679;SDS011;11507;44.858;10.374;2024-02-28T13:12:52;8.65;;;3.40;;
22679;SDS011;11507;44.858;10.374;2024-02-28T13:15:19;8.63;;;3.78;;
22679;SDS011;11507;44.858;10.374;2024-02-28T13:17:45;9.00;;;3.40;;
22679;SDS011;11507;44.858;10.374;2024-02-28T13:20:15;6.40;;;3.20;;
22679;SDS011;11507;44.858;10.374;2024-02-28T13:22:42;11.02;;;3.08;;
22679;SDS011;11507;44.858;10.374;2024-02-28T13:25:08;9.35;;;3.50;;
22679;SDS011;11507;44.858;10.374;2024-02-28T13:27:37;8.10;;;3.17;;
22679;SDS011;11507;44.858;10.374;2024-02-28T13:30:04;7.22;;;3.20;;
22679;SDS011;11507;44.858;10.374;2024-02-28T13:32:31;11.05;;;3.33;;
22679;SDS011;11507;44.858;10.374;2024-02-28T13:34:57;9.23;;;3.50;;
22679;SDS011;11507;44.858;10.374;2024-02-28T13:37:25;8.52;;;3.42;;
22679;SDS011;11507;44.858;10.374;2024-02-28T13:39:51;8.15;;;3.13;;
22679;SDS011;11507;44.858;10.374;2024-02-28T13:42:18;6.38;;;3.33;;
22679;SDS011;11507;44.858;10.374;2024-02-28T13:44:50;10.73;;;3.67;;
22679;SDS011;11507;44.858;10.374;2024-02-28T13:47:16;11.20;;;3.65;;
22679;SDS011;11507;44.858;10.374;2024-02-28T13:49:43;8.48;;;3.17;;
22679;SDS011;11507;44.858;10.374;2024-02-28T13:52:09;9.77;;;4.05;;
22679;SDS011;11507;44.858;10.374;2024-02-28T13:54:36;11.02;;;4.05;;
22679;SDS011;11507;44.858;10.374;2024-02-28T13:57:03;11.15;;;4.97;;
22679;SDS011;11507;44.858;10.374;2024-02-28T13:59:30;13.85;;;5.88;;
22679;SDS011;11507;44.858;10.374;2024-02-28T14:01:57;12.80;;;6.25;;
22679;SDS011;11507;44.858;10.374;2024-02-28T14:04:25;9.70;;;5.75;;
22679;SDS011;11507;44.858;10.374;2024-02-28T14:06:51;16.73;;;6.80;;
22679;SDS011;11507;44.858;10.374;2024-02-28T14:09:19;17.17;;;8.10;;
22679;SDS011;11507;44.858;10.374;2024-02-28T14:11:45;14.60;;;7.00;;
22679;SDS011;11507;44.858;10.374;2024-02-28T14:14:12;14.82;;;7.38;;
22679;SDS011;11507;44.858;10.374;2024-02-28T14:16:38;10.38;;;6.32;;
22679;SDS011;11507;44.858;10.374;2024-02-28T14:19:05;11.70;;;6.15;;
22679;SDS011;11507;44.858;10.374;2024-02-28T14:21:31;10.73;;;5.70;;